sensor_id;sensor_type;location;lat;lon;timestamp;P1;durP1;ratioP1;P2;durP2;ratioP2
3261;SDS011;1643;47.746;9.000;2022-08-14T00:00:11;2.50;;;2.30;;
3261;SDS011;1643;47.746;9.000;2022-08-14T00:02:39;3.27;;;2.97;;
3261;SDS011;1643;47.746;9.000;2022-08-14T00:05:09;3.30;;;2.73;;
3261;SDS011;1643;47.746;9.000;2022-08-14T00:07:37;2.50;;;2.30;;
3261;SDS011;1643;47.746;9.000;2022-08-14T00:10:04;2.80;;;2.60;;
3261;SDS011;1643;47.746;9.000;2022-08-14T00:12:32;2.50;;;2.30;;
3261;SDS011;1643;47.746;9.000;2022-08-14T00:15:00;3.60;;;2.60;;
3261;SDS011;1643;47.746;9.000;2022-08-14T00:17:29;2.27;;;2.17;;
3261;SDS011;1643;47.746;9.000;2022-08-14T00:19:54;2.70;;;2.50;;
3261;SDS011;1643;47.746;9.000;2022-08-14T00:22:20;2.47;;;2.33;;
3261;SDS011;1643;47.746;9.000;2022-08-14T00:24:46;2.80;;;2.60;;
3261;SDS011;1643;47.746;9.000;2022-08-14T00:27:12;2.40;;;2.30;;
3261;SDS011;1643;47.746;9.000;2022-08-14T00:29:37;2.53;;;2.30;;
3261;SDS011;1643;47.746;9.000;2022-08-14T00:32:03;2.97;;;2.77;;
3261;SDS011;1643;47.746;9.000;2022-08-14T00:34:29;3.20;;;2.63;;
3261;SDS011;1643;47.746;9.000;2022-08-14T00:36:55;2.53;;;2.33;;
3261;SDS011;1643;47.746;9.000;2022-08-14T00:39:20;3.33;;;2.80;;
3261;SDS011;1643;47.746;9.000;2022-08-14T00:41:47;2.60;;;2.40;;
3261;SDS011;1643;47.746;9.000;2022-08-14T00:44:14;6.57;;;3.30;;
3261;SDS011;1643;47.746;9.000;2022-08-14T00:46:40;2.93;;;2.73;;
3261;SDS011;1643;47.746;9.000;2022-08-14T00:49:06;2.50;;;2.40;;
3261;SDS011;1643;47.746;9.000;2022-08-14T00:51:32;2.93;;;2.73;;
3261;SDS011;1643;47.746;9.000;2022-08-14T00:53:59;2.90;;;2.70;;
3261;SDS011;1643;47.746;9.000;2022-08-14T00:56:27;2.80;;;2.60;;
3261;SDS011;1643;47.746;9.000;2022-08-14T00:58:53;2.50;;;2.30;;
3261;SDS011;1643;47.746;9.000;2022-08-14T01:01:20;2.87;;;2.67;;
3261;SDS011;1643;47.746;9.000;2022-08-14T01:03:46;2.77;;;2.57;;
3261;SDS011;1643;47.746;9.000;2022-08-14T01:06:12;9.83;;;2.73;;
3261;SDS011;1643;47.746;9.000;2022-08-14T01:08:42;2.63;;;2.43;;
3261;SDS011;1643;47.746;9.000;2022-08-14T01:11:09;2.97;;;2.73;;
3261;SDS011;1643;47.746;9.000;2022-08-14T01:13:40;2.83;;;2.63;;
3261;SDS011;1643;47.746;9.000;2022-08-14T01:16:07;3.03;;;2.83;;
3261;SDS011;1643;47.746;9.000;2022-08-14T01:18:39;2.90;;;2.67;;
3261;SDS011;1643;47.746;9.000;2022-08-14T01:21:28;2.80;;;2.60;;
3261;SDS011;1643;47.746;9.000;2022-08-14T01:23:55;2.73;;;2.47;;
3261;SDS011;1643;47.746;9.000;2022-08-14T01:26:21;2.70;;;2.30;;
3261;SDS011;1643;47.746;9.000;2022-08-14T01:28:50;2.83;;;2.63;;
3261;SDS011;1643;47.746;9.000;2022-08-14T01:31:20;2.20;;;2.10;;
3261;SDS011;1643;47.746;9.000;2022-08-14T01:33:48;2.60;;;2.40;;
3261;SDS011;1643;47.746;9.000;2022-08-14T01:36:17;2.80;;;2.60;;
3261;SDS011;1643;47.746;9.000;2022-08-14T01:38:48;3.43;;;3.13;;
3261;SDS011;1643;47.746;9.000;2022-08-14T01:41:18;2.57;;;2.37;;
3261;SDS011;1643;47.746;9.000;2022-08-14T01:43:49;2.90;;;2.70;;
3261;SDS011;1643;47.746;9.000;2022-08-14T01:46:17;2.70;;;2.50;;
3261;SDS011;1643;47.746;9.000;2022-08-14T01:48:46;2.97;;;2.77;;
3261;SDS011;1643;47.746;9.000;2022-08-14T01:51:13;3.20;;;2.90;;
3261;SDS011;1643;47.746;9.000;2022-08-14T01:53:42;3.10;;;2.80;;
3261;SDS011;1643;47.746;9.000;2022-08-14T01:56:11;4.77;;;3.00;;
3261;SDS011;1643;47.746;9.000;2022-08-14T01:58:42;2.80;;;2.60;;
3261;SDS011;1643;47.746;9.000;2022-08-14T02:01:12;3.27;;;2.83;;
3261;SDS011;1643;47.746;9.000;2022-08-14T02:03:42;2.80;;;2.60;;
3261;SDS011;1643;47.746;9.000;2022-08-14T02:06:08;3.30;;;2.97;;
3261;SDS011;1643;47.746;9.000;2022-08-14T02:08:35;2.50;;;2.40;;
3261;SDS011;1643;47.746;9.000;2022-08-14T02:11:03;2.80;;;2.60;;
3261;SDS011;1643;47.746;9.000;2022-08-14T02:13:53;3.60;;;2.70;;
3261;SDS011;1643;47.746;9.000;2022-08-14T02:16:24;2.73;;;2.53;;
3261;SDS011;1643;47.746;9.000;2022-08-14T02:18:59;2.50;;;2.40;;
3261;SDS011;1643;47.746;9.000;2022-08-14T02:21:27;3.23;;;3.03;;
3261;SDS011;1643;47.746;9.000;2022-08-14T02:23:55;2.20;;;2.10;;
3261;SDS011;1643;47.746;9.000;2022-08-14T02:26:25;4.40;;;2.97;;
3261;SDS011;1643;47.746;9.000;2022-08-14T02:28:54;2.97;;;2.70;;
3261;SDS011;1643;47.746;9.000;2022-08-14T02:31:28;3.10;;;2.80;;
3261;SDS011;1643;47.746;9.000;2022-08-14T02:33:57;3.00;;;2.80;;
3261;SDS011;1643;47.746;9.000;2022-08-14T02:36:24;2.57;;;2.37;;
3261;SDS011;1643;47.746;9.000;2022-08-14T02:38:51;3.00;;;2.70;;
3261;SDS011;1643;47.746;9.000;2022-08-14T02:41:16;4.87;;;3.07;;
3261;SDS011;1643;47.746;9.000;2022-08-14T02:43:42;2.93;;;2.73;;
3261;SDS011;1643;47.746;9.000;2022-08-14T02:46:08;2.70;;;2.50;;
3261;SDS011;1643;47.746;9.000;2022-08-14T02:48:36;2.77;;;2.57;;
3261;SDS011;1643;47.746;9.000;2022-08-14T02:51:05;2.93;;;2.73;;
3261;SDS011;1643;47.746;9.000;2022-08-14T02:53:34;3.23;;;2.93;;
3261;SDS011;1643;47.746;9.000;2022-08-14T02:56:02;3.67;;;3.37;;
3261;SDS011;1643;47.746;9.000;2022-08-14T02:58:28;3.23;;;3.00;;
3261;SDS011;1643;47.746;9.000;2022-08-14T03:00:54;2.90;;;2.70;;
3261;SDS011;1643;47.746;9.000;2022-08-14T03:03:20;3.20;;;2.90;;
3261;SDS011;1643;47.746;9.000;2022-08-14T03:05:47;3.00;;;2.63;;
3261;SDS011;1643;47.746;9.000;2022-08-14T03:08:15;3.40;;;2.90;;
3261;SDS011;1643;47.746;9.000;2022-08-14T03:10:42;2.93;;;2.73;;
3261;SDS011;1643;47.746;9.000;2022-08-14T03:13:09;3.37;;;3.07;;
3261;SDS011;1643;47.746;9.000;2022-08-14T03:15:36;3.10;;;2.80;;
3261;SDS011;1643;47.746;9.000;2022-08-14T03:18:10;2.90;;;2.70;;
3261;SDS011;1643;47.746;9.000;2022-08-14T03:20:36;2.80;;;2.60;;
3261;SDS011;1643;47.746;9.000;2022-08-14T03:23:02;2.70;;;2.50;;
3261;SDS011;1643;47.746;9.000;2022-08-14T03:25:28;2.40;;;2.30;;
3261;SDS011;1643;47.746;9.000;2022-08-14T03:28:02;3.43;;;3.13;;
3261;SDS011;1643;47.746;9.000;2022-08-14T03:30:32;3.50;;;3.20;;
3261;SDS011;1643;47.746;9.000;2022-08-14T03:32:58;3.00;;;2.80;;
3261;SDS011;1643;47.746;9.000;2022-08-14T03:35:24;3.10;;;2.90;;
3261;SDS011;1643;47.746;9.000;2022-08-14T03:37:50;3.10;;;2.80;;
3261;SDS011;1643;47.746;9.000;2022-08-14T03:40:19;2.97;;;2.77;;
3261;SDS011;1643;47.746;9.000;2022-08-14T03:42:46;3.47;;;3.10;;
3261;SDS011;1643;47.746;9.000;2022-08-14T03:45:13;2.93;;;2.73;;
3261;SDS011;1643;47.746;9.000;2022-08-14T03:47:39;3.00;;;2.80;;
3261;SDS011;1643;47.746;9.000;2022-08-14T03:50:09;2.80;;;2.60;;
3261;SDS011;1643;47.746;9.000;2022-08-14T03:52:39;2.70;;;2.50;;
3261;SDS011;1643;47.746;9.000;2022-08-14T03:55:07;3.60;;;2.90;;
3261;SDS011;1643;47.746;9.000;2022-08-14T03:57:35;3.00;;;2.80;;
3261;SDS011;1643;47.746;9.000;2022-08-14T04:00:06;4.63;;;2.80;;
3261;SDS011;1643;47.746;9.000;2022-08-14T04:02:36;2.73;;;2.53;;
3261;SDS011;1643;47.746;9.000;2022-08-14T04:05:03;3.03;;;2.83;;
3261;SDS011;1643;47.746;9.000;2022-08-14T04:07:30;2.93;;;2.73;;
3261;SDS011;1643;47.746;9.000;2022-08-14T04:09:57;3.53;;;3.23;;
3261;SDS011;1643;47.746;9.000;2022-08-14T04:12:23;3.33;;;2.77;;
3261;SDS011;1643;47.746;9.000;2022-08-14T04:14:48;3.50;;;3.20;;
3261;SDS011;1643;47.746;9.000;2022-08-14T04:17:16;2.60;;;2.40;;
3261;SDS011;1643;47.746;9.000;2022-08-14T04:19:43;3.37;;;3.07;;
3261;SDS011;1643;47.746;9.000;2022-08-14T04:22:10;2.57;;;2.47;;
3261;SDS011;1643;47.746;9.000;2022-08-14T04:24:37;2.97;;;2.77;;
3261;SDS011;1643;47.746;9.000;2022-08-14T04:27:04;3.43;;;3.23;;
3261;SDS011;1643;47.746;9.000;2022-08-14T04:29:37;3.43;;;3.13;;
3261;SDS011;1643;47.746;9.000;2022-08-14T04:32:04;3.37;;;3.17;;
3261;SDS011;1643;47.746;9.000;2022-08-14T04:34:32;3.50;;;3.20;;
3261;SDS011;1643;47.746;9.000;2022-08-14T04:36:59;3.13;;;2.93;;
3261;SDS011;1643;47.746;9.000;2022-08-14T04:39:43;3.40;;;3.10;;
3261;SDS011;1643;47.746;9.000;2022-08-14T04:42:27;2.70;;;2.50;;
3261;SDS011;1643;47.746;9.000;2022-08-14T04:45:11;3.97;;;2.50;;
3261;SDS011;1643;47.746;9.000;2022-08-14T04:47:39;3.13;;;2.83;;
3261;SDS011;1643;47.746;9.000;2022-08-14T04:50:23;3.30;;;2.80;;
3261;SDS011;1643;47.746;9.000;2022-08-14T04:52:49;3.33;;;3.13;;
3261;SDS011;1643;47.746;9.000;2022-08-14T04:55:15;2.37;;;2.27;;
3261;SDS011;1643;47.746;9.000;2022-08-14T04:57:40;3.13;;;2.93;;
3261;SDS011;1643;47.746;9.000;2022-08-14T05:00:06;3.17;;;2.87;;
3261;SDS011;1643;47.746;9.000;2022-08-14T05:02:35;4.43;;;4.03;;
3261;SDS011;1643;47.746;9.000;2022-08-14T05:05:00;3.10;;;2.80;;
3261;SDS011;1643;47.746;9.000;2022-08-14T05:07:26;3.47;;;3.17;;
3261;SDS011;1643;47.746;9.000;2022-08-14T05:09:52;2.63;;;2.53;;
3261;SDS011;1643;47.746;9.000;2022-08-14T05:12:17;3.27;;;3.07;;
3261;SDS011;1643;47.746;9.000;2022-08-14T05:14:43;3.30;;;3.10;;
3261;SDS011;1643;47.746;9.000;2022-08-14T05:17:10;3.30;;;3.00;;
3261;SDS011;1643;47.746;9.000;2022-08-14T05:19:35;3.23;;;3.03;;
3261;SDS011;1643;47.746;9.000;2022-08-14T05:22:01;2.90;;;2.70;;
3261;SDS011;1643;47.746;9.000;2022-08-14T05:24:27;3.20;;;2.90;;
3261;SDS011;1643;47.746;9.000;2022-08-14T05:26:53;3.10;;;2.90;;
3261;SDS011;1643;47.746;9.000;2022-08-14T05:29:19;3.30;;;3.10;;
3261;SDS011;1643;47.746;9.000;2022-08-14T05:31:45;3.63;;;3.33;;
3261;SDS011;1643;47.746;9.000;2022-08-14T05:34:10;3.43;;;3.13;;
3261;SDS011;1643;47.746;9.000;2022-08-14T05:36:36;3.40;;;3.10;;
3261;SDS011;1643;47.746;9.000;2022-08-14T05:39:02;3.60;;;3.30;;
3261;SDS011;1643;47.746;9.000;2022-08-14T05:41:28;6.73;;;3.00;;
3261;SDS011;1643;47.746;9.000;2022-08-14T05:43:54;3.07;;;2.87;;
3261;SDS011;1643;47.746;9.000;2022-08-14T05:46:20;3.10;;;2.90;;
3261;SDS011;1643;47.746;9.000;2022-08-14T05:48:54;3.43;;;3.13;;
3261;SDS011;1643;47.746;9.000;2022-08-14T05:51:21;3.10;;;2.80;;
3261;SDS011;1643;47.746;9.000;2022-08-14T05:53:47;6.53;;;3.30;;
3261;SDS011;1643;47.746;9.000;2022-08-14T05:56:13;3.87;;;3.57;;
3261;SDS011;1643;47.746;9.000;2022-08-14T05:58:39;3.60;;;3.30;;
3261;SDS011;1643;47.746;9.000;2022-08-14T06:01:05;3.33;;;3.13;;
3261;SDS011;1643;47.746;9.000;2022-08-14T06:03:33;2.93;;;2.73;;
3261;SDS011;1643;47.746;9.000;2022-08-14T06:05:59;5.40;;;3.20;;
3261;SDS011;1643;47.746;9.000;2022-08-14T06:08:29;3.10;;;2.90;;
3261;SDS011;1643;47.746;9.000;2022-08-14T06:10:56;2.70;;;2.50;;
3261;SDS011;1643;47.746;9.000;2022-08-14T06:13:37;5.80;;;3.40;;
3261;SDS011;1643;47.746;9.000;2022-08-14T06:16:04;3.00;;;2.80;;
3261;SDS011;1643;47.746;9.000;2022-08-14T06:18:31;3.30;;;3.00;;
3261;SDS011;1643;47.746;9.000;2022-08-14T06:20:57;3.17;;;2.97;;
3261;SDS011;1643;47.746;9.000;2022-08-14T06:23:23;5.03;;;3.50;;
3261;SDS011;1643;47.746;9.000;2022-08-14T06:25:48;3.53;;;2.83;;
3261;SDS011;1643;47.746;9.000;2022-08-14T06:28:15;3.17;;;2.97;;
3261;SDS011;1643;47.746;9.000;2022-08-14T06:30:42;3.20;;;3.00;;
3261;SDS011;1643;47.746;9.000;2022-08-14T06:33:08;3.23;;;3.03;;
3261;SDS011;1643;47.746;9.000;2022-08-14T06:35:33;3.43;;;3.13;;
3261;SDS011;1643;47.746;9.000;2022-08-14T06:37:59;3.47;;;3.27;;
3261;SDS011;1643;47.746;9.000;2022-08-14T06:42:52;3.40;;;3.20;;
3261;SDS011;1643;47.746;9.000;2022-08-14T06:45:18;3.53;;;3.23;;
3261;SDS011;1643;47.746;9.000;2022-08-14T06:47:45;3.73;;;3.43;;
3261;SDS011;1643;47.746;9.000;2022-08-14T06:50:13;3.10;;;2.90;;
3261;SDS011;1643;47.746;9.000;2022-08-14T06:52:41;3.17;;;2.90;;
3261;SDS011;1643;47.746;9.000;2022-08-14T06:55:07;3.63;;;3.07;;
3261;SDS011;1643;47.746;9.000;2022-08-14T06:57:44;3.37;;;3.10;;
3261;SDS011;1643;47.746;9.000;2022-08-14T07:00:13;3.00;;;2.80;;
3261;SDS011;1643;47.746;9.000;2022-08-14T07:02:40;4.07;;;3.30;;
3261;SDS011;1643;47.746;9.000;2022-08-14T07:05:25;3.50;;;3.20;;
3261;SDS011;1643;47.746;9.000;2022-08-14T07:08:27;3.10;;;2.90;;
3261;SDS011;1643;47.746;9.000;2022-08-14T07:10:55;2.40;;;2.30;;
3261;SDS011;1643;47.746;9.000;2022-08-14T07:13:23;2.83;;;2.63;;
3261;SDS011;1643;47.746;9.000;2022-08-14T07:15:51;8.57;;;3.43;;
3261;SDS011;1643;47.746;9.000;2022-08-14T07:18:21;3.27;;;2.97;;
3261;SDS011;1643;47.746;9.000;2022-08-14T07:20:52;3.10;;;2.90;;
3261;SDS011;1643;47.746;9.000;2022-08-14T07:23:18;3.47;;;3.23;;
3261;SDS011;1643;47.746;9.000;2022-08-14T07:25:47;2.37;;;2.23;;
3261;SDS011;1643;47.746;9.000;2022-08-14T07:28:15;3.00;;;2.80;;
3261;SDS011;1643;47.746;9.000;2022-08-14T07:30:43;2.80;;;2.60;;
3261;SDS011;1643;47.746;9.000;2022-08-14T07:33:09;3.20;;;2.90;;
3261;SDS011;1643;47.746;9.000;2022-08-14T07:35:37;2.97;;;2.73;;
3261;SDS011;1643;47.746;9.000;2022-08-14T07:38:04;3.80;;;3.50;;
3261;SDS011;1643;47.746;9.000;2022-08-14T07:40:31;2.50;;;2.30;;
3261;SDS011;1643;47.746;9.000;2022-08-14T07:42:58;3.07;;;2.87;;
3261;SDS011;1643;47.746;9.000;2022-08-14T07:45:24;2.90;;;2.70;;
3261;SDS011;1643;47.746;9.000;2022-08-14T07:47:51;3.33;;;3.03;;
3261;SDS011;1643;47.746;9.000;2022-08-14T07:50:17;3.50;;;3.20;;
3261;SDS011;1643;47.746;9.000;2022-08-14T07:52:45;2.93;;;2.73;;
3261;SDS011;1643;47.746;9.000;2022-08-14T07:55:13;3.57;;;3.27;;
3261;SDS011;1643;47.746;9.000;2022-08-14T07:57:40;3.70;;;3.40;;
3261;SDS011;1643;47.746;9.000;2022-08-14T08:00:08;3.37;;;3.17;;
3261;SDS011;1643;47.746;9.000;2022-08-14T08:02:38;4.17;;;3.63;;
3261;SDS011;1643;47.746;9.000;2022-08-14T08:05:06;3.37;;;3.17;;
3261;SDS011;1643;47.746;9.000;2022-08-14T08:07:33;3.00;;;2.80;;
3261;SDS011;1643;47.746;9.000;2022-08-14T08:10:02;3.30;;;3.10;;
3261;SDS011;1643;47.746;9.000;2022-08-14T08:12:50;2.83;;;2.63;;
3261;SDS011;1643;47.746;9.000;2022-08-14T08:15:18;3.20;;;2.90;;
3261;SDS011;1643;47.746;9.000;2022-08-14T08:17:43;2.43;;;2.30;;
3261;SDS011;1643;47.746;9.000;2022-08-14T08:20:16;3.00;;;2.80;;
3261;SDS011;1643;47.746;9.000;2022-08-14T08:22:44;2.97;;;2.77;;
3261;SDS011;1643;47.746;9.000;2022-08-14T08:25:10;2.50;;;2.33;;
3261;SDS011;1643;47.746;9.000;2022-08-14T08:27:36;2.87;;;2.67;;
3261;SDS011;1643;47.746;9.000;2022-08-14T08:30:05;3.50;;;3.20;;
3261;SDS011;1643;47.746;9.000;2022-08-14T08:32:40;4.10;;;3.80;;
3261;SDS011;1643;47.746;9.000;2022-08-14T08:35:17;3.43;;;3.20;;
3261;SDS011;1643;47.746;9.000;2022-08-14T08:37:45;2.90;;;2.70;;
3261;SDS011;1643;47.746;9.000;2022-08-14T08:40:20;3.43;;;2.50;;
3261;SDS011;1643;47.746;9.000;2022-08-14T08:42:49;2.30;;;2.20;;
3261;SDS011;1643;47.746;9.000;2022-08-14T08:45:16;3.07;;;2.77;;
3261;SDS011;1643;47.746;9.000;2022-08-14T08:47:42;3.20;;;3.00;;
3261;SDS011;1643;47.746;9.000;2022-08-14T08:50:19;3.10;;;2.90;;
3261;SDS011;1643;47.746;9.000;2022-08-14T08:52:50;3.20;;;3.00;;
3261;SDS011;1643;47.746;9.000;2022-08-14T08:55:50;3.40;;;3.20;;
3261;SDS011;1643;47.746;9.000;2022-08-14T08:58:11;3.00;;;2.80;;
3261;SDS011;1643;47.746;9.000;2022-08-14T09:00:39;3.20;;;3.00;;
3261;SDS011;1643;47.746;9.000;2022-08-14T09:05:32;3.23;;;3.03;;
3261;SDS011;1643;47.746;9.000;2022-08-14T09:10:35;2.90;;;2.70;;
3261;SDS011;1643;47.746;9.000;2022-08-14T09:13:01;3.20;;;3.00;;
3261;SDS011;1643;47.746;9.000;2022-08-14T09:15:28;3.33;;;3.03;;
3261;SDS011;1643;47.746;9.000;2022-08-14T09:17:54;3.07;;;2.87;;
3261;SDS011;1643;47.746;9.000;2022-08-14T09:20:21;3.30;;;3.10;;
3261;SDS011;1643;47.746;9.000;2022-08-14T09:22:48;3.60;;;3.30;;
3261;SDS011;1643;47.746;9.000;2022-08-14T09:25:15;3.80;;;3.40;;
3261;SDS011;1643;47.746;9.000;2022-08-14T09:27:41;3.70;;;3.40;;
3261;SDS011;1643;47.746;9.000;2022-08-14T09:30:07;4.03;;;3.63;;
3261;SDS011;1643;47.746;9.000;2022-08-14T09:33:36;4.03;;;3.73;;
3261;SDS011;1643;47.746;9.000;2022-08-14T09:38:15;3.23;;;2.93;;
3261;SDS011;1643;47.746;9.000;2022-08-14T09:46:12;3.70;;;3.40;;
3261;SDS011;1643;47.746;9.000;2022-08-14T09:48:40;2.93;;;2.73;;
3261;SDS011;1643;47.746;9.000;2022-08-14T09:51:05;2.90;;;2.70;;
3261;SDS011;1643;47.746;9.000;2022-08-14T09:56:11;3.23;;;3.03;;
3261;SDS011;1643;47.746;9.000;2022-08-14T09:58:39;3.90;;;3.60;;
3261;SDS011;1643;47.746;9.000;2022-08-14T10:01:09;3.37;;;3.07;;
3261;SDS011;1643;47.746;9.000;2022-08-14T10:06:20;3.63;;;3.33;;
3261;SDS011;1643;47.746;9.000;2022-08-14T10:08:58;3.20;;;3.00;;
3261;SDS011;1643;47.746;9.000;2022-08-14T10:11:28;3.63;;;3.10;;
3261;SDS011;1643;47.746;9.000;2022-08-14T10:14:10;3.20;;;3.00;;
3261;SDS011;1643;47.746;9.000;2022-08-14T10:16:50;3.93;;;3.53;;
3261;SDS011;1643;47.746;9.000;2022-08-14T10:19:23;3.10;;;2.90;;
3261;SDS011;1643;47.746;9.000;2022-08-14T10:22:04;3.93;;;3.63;;
3261;SDS011;1643;47.746;9.000;2022-08-14T10:24:37;5.07;;;3.20;;
3261;SDS011;1643;47.746;9.000;2022-08-14T10:27:14;3.50;;;3.20;;
3261;SDS011;1643;47.746;9.000;2022-08-14T10:29:43;3.23;;;2.90;;
3261;SDS011;1643;47.746;9.000;2022-08-14T10:32:14;3.40;;;3.10;;
3261;SDS011;1643;47.746;9.000;2022-08-14T10:34:39;4.27;;;3.97;;
3261;SDS011;1643;47.746;9.000;2022-08-14T10:37:06;2.90;;;2.70;;
3261;SDS011;1643;47.746;9.000;2022-08-14T10:39:37;4.00;;;3.37;;
3261;SDS011;1643;47.746;9.000;2022-08-14T10:42:05;3.33;;;3.10;;
3261;SDS011;1643;47.746;9.000;2022-08-14T10:44:39;3.63;;;3.33;;
3261;SDS011;1643;47.746;9.000;2022-08-14T10:47:07;3.10;;;2.90;;
3261;SDS011;1643;47.746;9.000;2022-08-14T10:49:34;3.10;;;2.90;;
3261;SDS011;1643;47.746;9.000;2022-08-14T10:52:08;3.00;;;2.80;;
3261;SDS011;1643;47.746;9.000;2022-08-14T10:54:42;2.83;;;2.63;;
3261;SDS011;1643;47.746;9.000;2022-08-14T10:57:10;3.10;;;2.90;;
3261;SDS011;1643;47.746;9.000;2022-08-14T10:59:42;2.87;;;2.67;;
3261;SDS011;1643;47.746;9.000;2022-08-14T11:02:24;2.80;;;2.60;;
3261;SDS011;1643;47.746;9.000;2022-08-14T11:07:38;3.00;;;2.80;;
3261;SDS011;1643;47.746;9.000;2022-08-14T11:10:07;2.97;;;2.77;;
3261;SDS011;1643;47.746;9.000;2022-08-14T11:12:47;3.03;;;2.73;;
3261;SDS011;1643;47.746;9.000;2022-08-14T11:15:17;3.70;;;2.53;;
3261;SDS011;1643;47.746;9.000;2022-08-14T11:17:52;2.90;;;2.70;;
3261;SDS011;1643;47.746;9.000;2022-08-14T11:20:22;3.10;;;2.90;;
3261;SDS011;1643;47.746;9.000;2022-08-14T11:22:51;3.10;;;2.90;;
3261;SDS011;1643;47.746;9.000;2022-08-14T11:25:19;6.53;;;2.77;;
3261;SDS011;1643;47.746;9.000;2022-08-14T11:27:47;2.97;;;2.77;;
3261;SDS011;1643;47.746;9.000;2022-08-14T11:30:16;3.63;;;2.70;;
3261;SDS011;1643;47.746;9.000;2022-08-14T11:32:47;3.43;;;3.07;;
3261;SDS011;1643;47.746;9.000;2022-08-14T11:35:15;3.23;;;2.60;;
3261;SDS011;1643;47.746;9.000;2022-08-14T11:38:14;2.40;;;2.30;;
3261;SDS011;1643;47.746;9.000;2022-08-14T11:40:36;4.20;;;2.40;;
3261;SDS011;1643;47.746;9.000;2022-08-14T11:43:04;2.20;;;2.00;;
3261;SDS011;1643;47.746;9.000;2022-08-14T11:45:32;2.60;;;2.40;;
3261;SDS011;1643;47.746;9.000;2022-08-14T11:48:01;2.70;;;2.50;;
3261;SDS011;1643;47.746;9.000;2022-08-14T11:50:48;2.73;;;2.53;;
3261;SDS011;1643;47.746;9.000;2022-08-14T11:53:22;2.60;;;2.40;;
3261;SDS011;1643;47.746;9.000;2022-08-14T11:56:04;2.30;;;2.20;;
3261;SDS011;1643;47.746;9.000;2022-08-14T11:58:33;2.17;;;2.07;;
3261;SDS011;1643;47.746;9.000;2022-08-14T12:01:05;2.17;;;2.00;;
3261;SDS011;1643;47.746;9.000;2022-08-14T12:03:54;2.10;;;2.00;;
3261;SDS011;1643;47.746;9.000;2022-08-14T12:06:21;2.00;;;1.90;;
3261;SDS011;1643;47.746;9.000;2022-08-14T12:08:46;2.07;;;1.97;;
3261;SDS011;1643;47.746;9.000;2022-08-14T12:11:18;1.90;;;1.80;;
3261;SDS011;1643;47.746;9.000;2022-08-14T12:13:45;2.10;;;1.90;;
3261;SDS011;1643;47.746;9.000;2022-08-14T12:16:11;3.50;;;1.80;;
3261;SDS011;1643;47.746;9.000;2022-08-14T12:18:41;1.73;;;1.60;;
3261;SDS011;1643;47.746;9.000;2022-08-14T12:23:43;1.87;;;1.60;;
3261;SDS011;1643;47.746;9.000;2022-08-14T12:26:14;1.67;;;1.57;;
3261;SDS011;1643;47.746;9.000;2022-08-14T12:28:44;1.50;;;1.40;;
3261;SDS011;1643;47.746;9.000;2022-08-14T12:31:14;2.20;;;2.00;;
3261;SDS011;1643;47.746;9.000;2022-08-14T12:33:53;5.13;;;1.47;;
3261;SDS011;1643;47.746;9.000;2022-08-14T12:36:24;2.27;;;2.07;;
3261;SDS011;1643;47.746;9.000;2022-08-14T12:38:54;1.70;;;1.60;;
3261;SDS011;1643;47.746;9.000;2022-08-14T12:41:24;2.40;;;2.30;;
3261;SDS011;1643;47.746;9.000;2022-08-14T12:43:56;1.67;;;1.57;;
3261;SDS011;1643;47.746;9.000;2022-08-14T12:46:32;2.43;;;2.30;;
3261;SDS011;1643;47.746;9.000;2022-08-14T12:49:10;2.27;;;2.17;;
3261;SDS011;1643;47.746;9.000;2022-08-14T12:51:38;2.27;;;2.17;;
3261;SDS011;1643;47.746;9.000;2022-08-14T12:54:11;2.97;;;1.90;;
3261;SDS011;1643;47.746;9.000;2022-08-14T12:56:42;2.47;;;2.27;;
3261;SDS011;1643;47.746;9.000;2022-08-14T12:59:10;2.50;;;2.30;;
3261;SDS011;1643;47.746;9.000;2022-08-14T13:01:36;2.43;;;2.23;;
3261;SDS011;1643;47.746;9.000;2022-08-14T13:06:40;2.00;;;1.90;;
3261;SDS011;1643;47.746;9.000;2022-08-14T13:09:11;2.80;;;2.40;;
3261;SDS011;1643;47.746;9.000;2022-08-14T13:14:16;2.60;;;2.40;;
3261;SDS011;1643;47.746;9.000;2022-08-14T13:16:53;2.50;;;2.40;;
3261;SDS011;1643;47.746;9.000;2022-08-14T13:19:21;3.20;;;2.10;;
3261;SDS011;1643;47.746;9.000;2022-08-14T13:21:49;2.50;;;2.30;;
3261;SDS011;1643;47.746;9.000;2022-08-14T13:24:17;2.70;;;2.50;;
3261;SDS011;1643;47.746;9.000;2022-08-14T13:26:46;2.80;;;2.40;;
3261;SDS011;1643;47.746;9.000;2022-08-14T13:29:21;2.90;;;2.70;;
3261;SDS011;1643;47.746;9.000;2022-08-14T13:31:49;3.03;;;2.83;;
3261;SDS011;1643;47.746;9.000;2022-08-14T13:34:21;2.60;;;2.40;;
3261;SDS011;1643;47.746;9.000;2022-08-14T13:36:51;2.90;;;2.70;;
3261;SDS011;1643;47.746;9.000;2022-08-14T13:39:18;3.00;;;2.80;;
3261;SDS011;1643;47.746;9.000;2022-08-14T13:41:45;2.83;;;2.63;;
3261;SDS011;1643;47.746;9.000;2022-08-14T13:44:11;3.07;;;2.87;;
3261;SDS011;1643;47.746;9.000;2022-08-14T13:46:39;3.70;;;3.40;;
3261;SDS011;1643;47.746;9.000;2022-08-14T13:49:08;4.23;;;3.67;;
3261;SDS011;1643;47.746;9.000;2022-08-14T13:51:39;3.83;;;3.53;;
3261;SDS011;1643;47.746;9.000;2022-08-14T13:54:08;3.83;;;3.53;;
3261;SDS011;1643;47.746;9.000;2022-08-14T13:56:38;4.13;;;3.63;;
3261;SDS011;1643;47.746;9.000;2022-08-14T13:59:04;3.90;;;3.60;;
3261;SDS011;1643;47.746;9.000;2022-08-14T14:01:30;3.63;;;3.33;;
3261;SDS011;1643;47.746;9.000;2022-08-14T14:03:58;3.77;;;3.47;;
3261;SDS011;1643;47.746;9.000;2022-08-14T14:06:25;4.00;;;3.70;;
3261;SDS011;1643;47.746;9.000;2022-08-14T14:08:53;3.50;;;3.13;;
3261;SDS011;1643;47.746;9.000;2022-08-14T14:11:20;3.23;;;2.93;;
3261;SDS011;1643;47.746;9.000;2022-08-14T14:13:49;4.57;;;3.93;;
3261;SDS011;1643;47.746;9.000;2022-08-14T14:16:16;5.63;;;4.00;;
3261;SDS011;1643;47.746;9.000;2022-08-14T14:18:46;4.70;;;3.73;;
3261;SDS011;1643;47.746;9.000;2022-08-14T14:21:16;4.07;;;3.50;;
3261;SDS011;1643;47.746;9.000;2022-08-14T14:23:43;4.43;;;3.20;;
3261;SDS011;1643;47.746;9.000;2022-08-14T14:26:12;4.03;;;3.73;;
3261;SDS011;1643;47.746;9.000;2022-08-14T14:28:42;3.53;;;3.20;;
3261;SDS011;1643;47.746;9.000;2022-08-14T14:31:14;4.10;;;3.80;;
3261;SDS011;1643;47.746;9.000;2022-08-14T14:33:48;4.00;;;3.63;;
3261;SDS011;1643;47.746;9.000;2022-08-14T14:36:19;3.73;;;3.43;;
3261;SDS011;1643;47.746;9.000;2022-08-14T14:38:58;3.20;;;3.00;;
3261;SDS011;1643;47.746;9.000;2022-08-14T14:41:29;3.40;;;3.10;;
3261;SDS011;1643;47.746;9.000;2022-08-14T14:43:57;3.53;;;3.23;;
3261;SDS011;1643;47.746;9.000;2022-08-14T14:46:24;3.83;;;3.53;;
3261;SDS011;1643;47.746;9.000;2022-08-14T14:48:53;5.77;;;4.40;;
3261;SDS011;1643;47.746;9.000;2022-08-14T14:51:19;7.63;;;3.60;;
3261;SDS011;1643;47.746;9.000;2022-08-14T14:53:45;3.67;;;3.37;;
3261;SDS011;1643;47.746;9.000;2022-08-14T14:56:12;6.53;;;4.07;;
3261;SDS011;1643;47.746;9.000;2022-08-14T14:58:40;4.10;;;3.80;;
3261;SDS011;1643;47.746;9.000;2022-08-14T15:01:07;5.00;;;4.13;;
3261;SDS011;1643;47.746;9.000;2022-08-14T15:03:34;5.20;;;4.70;;
3261;SDS011;1643;47.746;9.000;2022-08-14T15:06:01;4.40;;;4.10;;
3261;SDS011;1643;47.746;9.000;2022-08-14T15:08:27;4.33;;;3.93;;
3261;SDS011;1643;47.746;9.000;2022-08-14T15:10:54;4.30;;;3.90;;
3261;SDS011;1643;47.746;9.000;2022-08-14T15:13:21;5.03;;;4.07;;
3261;SDS011;1643;47.746;9.000;2022-08-14T15:15:46;4.00;;;3.70;;
3261;SDS011;1643;47.746;9.000;2022-08-14T15:18:12;5.10;;;4.00;;
3261;SDS011;1643;47.746;9.000;2022-08-14T15:20:38;6.80;;;4.93;;
3261;SDS011;1643;47.746;9.000;2022-08-14T15:23:04;4.07;;;3.77;;
3261;SDS011;1643;47.746;9.000;2022-08-14T15:25:30;4.60;;;4.10;;
3261;SDS011;1643;47.746;9.000;2022-08-14T15:27:59;5.40;;;4.40;;
3261;SDS011;1643;47.746;9.000;2022-08-14T15:30:26;5.63;;;3.83;;
3261;SDS011;1643;47.746;9.000;2022-08-14T15:32:52;3.80;;;3.50;;
3261;SDS011;1643;47.746;9.000;2022-08-14T15:35:19;3.63;;;3.30;;
3261;SDS011;1643;47.746;9.000;2022-08-14T15:37:46;3.53;;;3.07;;
3261;SDS011;1643;47.746;9.000;2022-08-14T15:40:13;4.37;;;3.40;;
3261;SDS011;1643;47.746;9.000;2022-08-14T15:42:39;4.07;;;3.50;;
3261;SDS011;1643;47.746;9.000;2022-08-14T15:45:07;3.73;;;3.43;;
3261;SDS011;1643;47.746;9.000;2022-08-14T15:47:35;3.60;;;3.30;;
3261;SDS011;1643;47.746;9.000;2022-08-14T15:50:02;3.93;;;3.63;;
3261;SDS011;1643;47.746;9.000;2022-08-14T15:52:32;4.60;;;3.87;;
3261;SDS011;1643;47.746;9.000;2022-08-14T15:55:02;7.13;;;3.67;;
3261;SDS011;1643;47.746;9.000;2022-08-14T15:57:29;3.90;;;3.60;;